sensor_id;sensor_type;location;lat;lon;timestamp;temperature;humidity
17795;DHT22;9021;50.882;4.326;2022-07-21T00:02:08;20.60;99.90
17795;DHT22;9021;50.882;4.326;2022-07-21T00:04:33;20.70;99.90
17795;DHT22;9021;50.882;4.326;2022-07-21T00:06:59;20.80;99.90
17795;DHT22;9021;50.882;4.326;2022-07-21T00:09:25;20.80;99.90
17795;DHT22;9021;50.882;4.326;2022-07-21T00:11:51;20.80;99.90
17795;DHT22;9021;50.882;4.326;2022-07-21T00:14:16;20.70;99.90
17795;DHT22;9021;50.882;4.326;2022-07-21T00:16:42;20.70;99.90
17795;DHT22;9021;50.882;4.326;2022-07-21T00:19:08;20.70;99.90
17795;DHT22;9021;50.882;4.326;2022-07-21T00:21:34;20.70;99.90
17795;DHT22;9021;50.882;4.326;2022-07-21T00:23:59;20.70;99.90
17795;DHT22;9021;50.882;4.326;2022-07-21T00:26:25;20.70;99.90
17795;DHT22;9021;50.882;4.326;2022-07-21T00:28:51;20.60;99.90
17795;DHT22;9021;50.882;4.326;2022-07-21T00:31:16;20.60;99.90
17795;DHT22;9021;50.882;4.326;2022-07-21T00:33:42;20.60;99.90
17795;DHT22;9021;50.882;4.326;2022-07-21T00:36:08;20.60;99.90
17795;DHT22;9021;50.882;4.326;2022-07-21T00:38:34;20.50;99.90
17795;DHT22;9021;50.882;4.326;2022-07-21T00:41:00;20.40;99.90
17795;DHT22;9021;50.882;4.326;2022-07-21T00:43:25;20.40;99.90
17795;DHT22;9021;50.882;4.326;2022-07-21T00:45:57;20.30;99.90
17795;DHT22;9021;50.882;4.326;2022-07-21T00:48:23;20.40;99.90
17795;DHT22;9021;50.882;4.326;2022-07-21T00:50:49;20.40;99.90
17795;DHT22;9021;50.882;4.326;2022-07-21T00:53:14;20.30;99.90
17795;DHT22;9021;50.882;4.326;2022-07-21T00:55:45;20.40;99.90
17795;DHT22;9021;50.882;4.326;2022-07-21T00:58:12;20.40;99.90
17795;DHT22;9021;50.882;4.326;2022-07-21T01:07:33;20.30;99.90
17795;DHT22;9021;50.882;4.326;2022-07-21T01:09:59;20.20;99.90
17795;DHT22;9021;50.882;4.326;2022-07-21T01:12:26;20.00;99.90
17795;DHT22;9021;50.882;4.326;2022-07-21T01:14:52;20.10;99.90
17795;DHT22;9021;50.882;4.326;2022-07-21T01:17:18;20.20;99.90
17795;DHT22;9021;50.882;4.326;2022-07-21T01:19:43;20.30;99.90
17795;DHT22;9021;50.882;4.326;2022-07-21T01:22:09;20.40;99.90
17795;DHT22;9021;50.882;4.326;2022-07-21T01:24:35;20.40;99.90
17795;DHT22;9021;50.882;4.326;2022-07-21T01:27:00;20.30;99.90
17795;DHT22;9021;50.882;4.326;2022-07-21T01:29:26;20.30;99.90
17795;DHT22;9021;50.882;4.326;2022-07-21T01:31:52;20.20;99.90
17795;DHT22;9021;50.882;4.326;2022-07-21T01:34:18;20.30;99.90
17795;DHT22;9021;50.882;4.326;2022-07-21T01:36:44;20.30;99.90
17795;DHT22;9021;50.882;4.326;2022-07-21T01:39:10;20.30;99.90
17795;DHT22;9021;50.882;4.326;2022-07-21T01:41:54;20.30;99.90
17795;DHT22;9021;50.882;4.326;2022-07-21T01:44:20;20.40;99.90
17795;DHT22;9021;50.882;4.326;2022-07-21T01:46:49;20.40;99.90
17795;DHT22;9021;50.882;4.326;2022-07-21T01:49:16;20.40;99.90
17795;DHT22;9021;50.882;4.326;2022-07-21T01:51:42;20.30;99.90
17795;DHT22;9021;50.882;4.326;2022-07-21T01:54:08;20.20;99.90
17795;DHT22;9021;50.882;4.326;2022-07-21T01:56:35;20.20;99.90
17795;DHT22;9021;50.882;4.326;2022-07-21T01:59:02;20.40;99.90
17795;DHT22;9021;50.882;4.326;2022-07-21T02:01:28;20.30;99.90
17795;DHT22;9021;50.882;4.326;2022-07-21T02:03:56;20.10;99.90
17795;DHT22;9021;50.882;4.326;2022-07-21T02:06:22;20.20;99.90
17795;DHT22;9021;50.882;4.326;2022-07-21T02:08:49;20.20;99.90
17795;DHT22;9021;50.882;4.326;2022-07-21T02:11:15;20.30;99.90
17795;DHT22;9021;50.882;4.326;2022-07-21T02:13:42;20.20;99.90
17795;DHT22;9021;50.882;4.326;2022-07-21T02:16:08;20.30;99.90
17795;DHT22;9021;50.882;4.326;2022-07-21T02:18:35;20.20;99.90
17795;DHT22;9021;50.882;4.326;2022-07-21T02:21:00;20.20;99.90
17795;DHT22;9021;50.882;4.326;2022-07-21T02:23:26;20.20;99.90
17795;DHT22;9021;50.882;4.326;2022-07-21T02:25:52;20.20;99.90
17795;DHT22;9021;50.882;4.326;2022-07-21T02:28:19;20.30;99.90
17795;DHT22;9021;50.882;4.326;2022-07-21T02:30:45;20.40;99.90
17795;DHT22;9021;50.882;4.326;2022-07-21T02:33:11;20.30;99.90
17795;DHT22;9021;50.882;4.326;2022-07-21T02:35:37;20.40;99.90
17795;DHT22;9021;50.882;4.326;2022-07-21T02:38:03;20.40;99.90
17795;DHT22;9021;50.882;4.326;2022-07-21T02:40:29;20.40;99.90
17795;DHT22;9021;50.882;4.326;2022-07-21T02:42:54;20.40;99.90
17795;DHT22;9021;50.882;4.326;2022-07-21T02:45:20;20.30;99.90
17795;DHT22;9021;50.882;4.326;2022-07-21T02:48:01;20.40;99.90
17795;DHT22;9021;50.882;4.326;2022-07-21T02:50:29;20.50;99.90
17795;DHT22;9021;50.882;4.326;2022-07-21T02:53:00;20.40;99.90
17795;DHT22;9021;50.882;4.326;2022-07-21T02:55:26;20.40;99.90
17795;DHT22;9021;50.882;4.326;2022-07-21T02:58:15;20.30;99.90
17795;DHT22;9021;50.882;4.326;2022-07-21T03:00:43;20.30;99.90
17795;DHT22;9021;50.882;4.326;2022-07-21T03:03:09;20.30;99.90
17795;DHT22;9021;50.882;4.326;2022-07-21T03:05:36;20.30;99.90
17795;DHT22;9021;50.882;4.326;2022-07-21T03:08:02;20.20;99.90
17795;DHT22;9021;50.882;4.326;2022-07-21T03:10:28;20.10;99.90
17795;DHT22;9021;50.882;4.326;2022-07-21T03:12:54;20.10;99.90
17795;DHT22;9021;50.882;4.326;2022-07-21T03:15:20;20.20;99.90
17795;DHT22;9021;50.882;4.326;2022-07-21T03:17:46;20.20;99.90
17795;DHT22;9021;50.882;4.326;2022-07-21T03:20:11;20.20;99.90
17795;DHT22;9021;50.882;4.326;2022-07-21T03:22:37;20.20;99.90
17795;DHT22;9021;50.882;4.326;2022-07-21T03:25:03;20.10;99.90
17795;DHT22;9021;50.882;4.326;2022-07-21T03:27:29;20.10;99.90
17795;DHT22;9021;50.882;4.326;2022-07-21T03:29:55;20.20;99.90
17795;DHT22;9021;50.882;4.326;2022-07-21T03:32:21;20.20;99.90
17795;DHT22;9021;50.882;4.326;2022-07-21T03:34:46;20.20;99.90
17795;DHT22;9021;50.882;4.326;2022-07-21T03:37:12;20.20;99.90
17795;DHT22;9021;50.882;4.326;2022-07-21T03:39:38;20.30;99.90
17795;DHT22;9021;50.882;4.326;2022-07-21T03:42:04;20.20;99.90
17795;DHT22;9021;50.882;4.326;2022-07-21T03:44:29;20.20;99.90
17795;DHT22;9021;50.882;4.326;2022-07-21T03:46:55;20.20;99.90
17795;DHT22;9021;50.882;4.326;2022-07-21T03:49:24;20.00;99.90
17795;DHT22;9021;50.882;4.326;2022-07-21T03:51:49;19.90;99.90
17795;DHT22;9021;50.882;4.326;2022-07-21T03:54:15;20.00;99.90
17795;DHT22;9021;50.882;4.326;2022-07-21T03:56:40;20.00;99.90
17795;DHT22;9021;50.882;4.326;2022-07-21T03:59:06;20.00;99.90
17795;DHT22;9021;50.882;4.326;2022-07-21T04:01:32;20.00;99.90
17795;DHT22;9021;50.882;4.326;2022-07-21T04:03:57;20.00;99.90
17795;DHT22;9021;50.882;4.326;2022-07-21T04:06:23;20.20;99.90
17795;DHT22;9021;50.882;4.326;2022-07-21T04:08:49;20.10;99.90
17795;DHT22;9021;50.882;4.326;2022-07-21T04:11:14;20.00;99.90
17795;DHT22;9021;50.882;4.326;2022-07-21T04:13:40;20.10;99.90
17795;DHT22;9021;50.882;4.326;2022-07-21T04:16:06;20.20;99.90
17795;DHT22;9021;50.882;4.326;2022-07-21T04:18:31;20.20;99.90
17795;DHT22;9021;50.882;4.326;2022-07-21T04:20:57;20.10;99.90
17795;DHT22;9021;50.882;4.326;2022-07-21T04:23:23;20.20;99.90
17795;DHT22;9021;50.882;4.326;2022-07-21T04:25:48;20.10;99.90
17795;DHT22;9021;50.882;4.326;2022-07-21T04:28:14;20.20;99.90
17795;DHT22;9021;50.882;4.326;2022-07-21T04:30:39;20.30;99.90
17795;DHT22;9021;50.882;4.326;2022-07-21T04:33:05;20.30;99.90
17795;DHT22;9021;50.882;4.326;2022-07-21T04:35:32;20.40;99.90
17795;DHT22;9021;50.882;4.326;2022-07-21T04:37:57;20.50;99.90
17795;DHT22;9021;50.882;4.326;2022-07-21T04:40:23;20.40;99.90
17795;DHT22;9021;50.882;4.326;2022-07-21T04:42:49;20.40;99.90
17795;DHT22;9021;50.882;4.326;2022-07-21T04:45:15;20.40;99.90
17795;DHT22;9021;50.882;4.326;2022-07-21T04:47:53;20.40;99.90
17795;DHT22;9021;50.882;4.326;2022-07-21T04:50:22;20.30;99.90
17795;DHT22;9021;50.882;4.326;2022-07-21T04:52:48;20.30;99.90
17795;DHT22;9021;50.882;4.326;2022-07-21T04:55:14;20.40;99.90
17795;DHT22;9021;50.882;4.326;2022-07-21T04:57:45;20.30;99.90
17795;DHT22;9021;50.882;4.326;2022-07-21T05:00:14;20.30;99.90
17795;DHT22;9021;50.882;4.326;2022-07-21T05:02:40;20.30;99.90
17795;DHT22;9021;50.882;4.326;2022-07-21T05:05:07;20.30;99.90
17795;DHT22;9021;50.882;4.326;2022-07-21T05:07:33;20.30;99.90
17795;DHT22;9021;50.882;4.326;2022-07-21T05:09:59;20.30;99.90
17795;DHT22;9021;50.882;4.326;2022-07-21T05:12:25;20.30;99.90
17795;DHT22;9021;50.882;4.326;2022-07-21T05:14:51;20.40;99.90
17795;DHT22;9021;50.882;4.326;2022-07-21T05:17:17;20.40;99.90
17795;DHT22;9021;50.882;4.326;2022-07-21T05:19:43;20.40;99.90
17795;DHT22;9021;50.882;4.326;2022-07-21T05:22:10;20.30;99.90
17795;DHT22;9021;50.882;4.326;2022-07-21T05:24:36;20.30;99.90
17795;DHT22;9021;50.882;4.326;2022-07-21T05:27:02;20.40;99.90
17795;DHT22;9021;50.882;4.326;2022-07-21T05:29:27;20.40;99.90
17795;DHT22;9021;50.882;4.326;2022-07-21T05:31:53;20.20;99.90
17795;DHT22;9021;50.882;4.326;2022-07-21T05:34:19;20.30;99.90
17795;DHT22;9021;50.882;4.326;2022-07-21T05:36:44;20.20;99.90
17795;DHT22;9021;50.882;4.326;2022-07-21T05:39:10;20.10;99.90
17795;DHT22;9021;50.882;4.326;2022-07-21T05:41:36;20.10;99.90
17795;DHT22;9021;50.882;4.326;2022-07-21T05:44:01;20.20;99.90
17795;DHT22;9021;50.882;4.326;2022-07-21T05:46:27;20.10;99.90
17795;DHT22;9021;50.882;4.326;2022-07-21T05:48:55;20.10;99.90
17795;DHT22;9021;50.882;4.326;2022-07-21T05:51:21;20.10;99.90
17795;DHT22;9021;50.882;4.326;2022-07-21T05:53:46;20.00;99.90
17795;DHT22;9021;50.882;4.326;2022-07-21T05:56:12;20.00;99.90
17795;DHT22;9021;50.882;4.326;2022-07-21T05:58:38;19.80;99.90
17795;DHT22;9021;50.882;4.326;2022-07-21T06:01:04;19.90;99.90
17795;DHT22;9021;50.882;4.326;2022-07-21T06:03:46;19.90;99.90
17795;DHT22;9021;50.882;4.326;2022-07-21T06:06:14;19.90;99.90
17795;DHT22;9021;50.882;4.326;2022-07-21T06:08:42;19.90;99.90
17795;DHT22;9021;50.882;4.326;2022-07-21T06:11:09;20.00;99.90
17795;DHT22;9021;50.882;4.326;2022-07-21T06:13:36;19.90;99.90
17795;DHT22;9021;50.882;4.326;2022-07-21T06:16:02;19.90;99.90
17795;DHT22;9021;50.882;4.326;2022-07-21T06:18:27;19.90;99.90
17795;DHT22;9021;50.882;4.326;2022-07-21T06:20:53;19.90;99.90
17795;DHT22;9021;50.882;4.326;2022-07-21T06:23:19;20.00;99.90
17795;DHT22;9021;50.882;4.326;2022-07-21T06:25:44;19.80;99.90
17795;DHT22;9021;50.882;4.326;2022-07-21T06:28:10;19.90;99.90
17795;DHT22;9021;50.882;4.326;2022-07-21T06:30:36;19.90;99.90
17795;DHT22;9021;50.882;4.326;2022-07-21T06:33:02;20.00;99.90
17795;DHT22;9021;50.882;4.326;2022-07-21T06:35:28;19.90;99.90
17795;DHT22;9021;50.882;4.326;2022-07-21T06:37:53;19.90;99.90
17795;DHT22;9021;50.882;4.326;2022-07-21T06:40:19;19.70;99.90
17795;DHT22;9021;50.882;4.326;2022-07-21T06:42:45;19.80;99.90
17795;DHT22;9021;50.882;4.326;2022-07-21T06:45:11;19.60;99.90
17795;DHT22;9021;50.882;4.326;2022-07-21T06:47:36;19.60;99.90
17795;DHT22;9021;50.882;4.326;2022-07-21T06:50:03;19.50;99.90
17795;DHT22;9021;50.882;4.326;2022-07-21T06:52:29;19.40;99.90
17795;DHT22;9021;50.882;4.326;2022-07-21T06:54:55;19.40;99.90
17795;DHT22;9021;50.882;4.326;2022-07-21T06:57:21;19.50;99.90
17795;DHT22;9021;50.882;4.326;2022-07-21T06:59:47;19.50;99.90
17795;DHT22;9021;50.882;4.326;2022-07-21T07:02:12;19.40;99.90
17795;DHT22;9021;50.882;4.326;2022-07-21T07:04:38;19.50;99.90
17795;DHT22;9021;50.882;4.326;2022-07-21T07:07:04;19.60;99.90
17795;DHT22;9021;50.882;4.326;2022-07-21T07:09:29;19.60;99.90
17795;DHT22;9021;50.882;4.326;2022-07-21T07:11:55;19.50;99.90
17795;DHT22;9021;50.882;4.326;2022-07-21T07:14:29;19.50;99.90
17795;DHT22;9021;50.882;4.326;2022-07-21T07:16:55;19.50;99.90
17795;DHT22;9021;50.882;4.326;2022-07-21T07:19:20;19.60;99.90
17795;DHT22;9021;50.882;4.326;2022-07-21T07:21:46;19.60;99.90
17795;DHT22;9021;50.882;4.326;2022-07-21T07:24:12;19.70;99.90
17795;DHT22;9021;50.882;4.326;2022-07-21T07:26:37;19.80;99.90
17795;DHT22;9021;50.882;4.326;2022-07-21T07:29:03;19.90;99.90
17795;DHT22;9021;50.882;4.326;2022-07-21T07:31:29;19.90;99.90
17795;DHT22;9021;50.882;4.326;2022-07-21T07:33:54;20.00;99.90
17795;DHT22;9021;50.882;4.326;2022-07-21T07:36:23;20.00;99.90
17795;DHT22;9021;50.882;4.326;2022-07-21T07:38:49;20.00;99.90
17795;DHT22;9021;50.882;4.326;2022-07-21T07:41:17;20.00;99.90
17795;DHT22;9021;50.882;4.326;2022-07-21T07:43:43;20.00;99.90
17795;DHT22;9021;50.882;4.326;2022-07-21T07:46:08;20.00;99.90
17795;DHT22;9021;50.882;4.326;2022-07-21T07:48:36;20.00;99.90
17795;DHT22;9021;50.882;4.326;2022-07-21T07:51:02;20.00;99.90
17795;DHT22;9021;50.882;4.326;2022-07-21T07:53:28;20.10;99.90
17795;DHT22;9021;50.882;4.326;2022-07-21T07:55:54;20.20;99.90
17795;DHT22;9021;50.882;4.326;2022-07-21T07:58:20;20.20;99.90
17795;DHT22;9021;50.882;4.326;2022-07-21T08:00:45;20.20;99.90
17795;DHT22;9021;50.882;4.326;2022-07-21T08:03:11;20.20;99.90
17795;DHT22;9021;50.882;4.326;2022-07-21T08:05:37;20.30;99.90
17795;DHT22;9021;50.882;4.326;2022-07-21T08:08:03;20.20;99.90
17795;DHT22;9021;50.882;4.326;2022-07-21T08:10:29;20.20;99.90
17795;DHT22;9021;50.882;4.326;2022-07-21T08:12:55;20.30;99.90
17795;DHT22;9021;50.882;4.326;2022-07-21T08:15:20;20.20;99.90
17795;DHT22;9021;50.882;4.326;2022-07-21T08:17:46;20.30;99.90
17795;DHT22;9021;50.882;4.326;2022-07-21T08:20:12;20.30;99.90
17795;DHT22;9021;50.882;4.326;2022-07-21T08:22:37;20.30;99.90
17795;DHT22;9021;50.882;4.326;2022-07-21T08:25:03;20.40;99.90
17795;DHT22;9021;50.882;4.326;2022-07-21T08:27:29;20.50;99.90
17795;DHT22;9021;50.882;4.326;2022-07-21T08:29:55;20.50;99.90
17795;DHT22;9021;50.882;4.326;2022-07-21T08:32:20;20.50;99.90
17795;DHT22;9021;50.882;4.326;2022-07-21T08:34:46;20.50;99.90
17795;DHT22;9021;50.882;4.326;2022-07-21T08:37:12;20.60;99.90
17795;DHT22;9021;50.882;4.326;2022-07-21T08:39:38;20.50;99.90
17795;DHT22;9021;50.882;4.326;2022-07-21T08:42:09;20.60;99.90
17795;DHT22;9021;50.882;4.326;2022-07-21T08:44:37;20.60;99.90
17795;DHT22;9021;50.882;4.326;2022-07-21T08:47:04;20.60;99.90
17795;DHT22;9021;50.882;4.326;2022-07-21T08:49:30;20.60;99.90
17795;DHT22;9021;50.882;4.326;2022-07-21T08:51:57;20.60;99.90
17795;DHT22;9021;50.882;4.326;2022-07-21T08:54:22;20.60;99.90
17795;DHT22;9021;50.882;4.326;2022-07-21T08:56:49;20.60;99.90
17795;DHT22;9021;50.882;4.326;2022-07-21T08:59:14;20.70;99.90
17795;DHT22;9021;50.882;4.326;2022-07-21T09:01:40;20.80;99.90
17795;DHT22;9021;50.882;4.326;2022-07-21T09:04:32;20.80;99.90
17795;DHT22;9021;50.882;4.326;2022-07-21T09:07:00;20.90;99.90
17795;DHT22;9021;50.882;4.326;2022-07-21T09:09:27;20.80;99.90
17795;DHT22;9021;50.882;4.326;2022-07-21T09:11:54;20.90;99.90
17795;DHT22;9021;50.882;4.326;2022-07-21T09:14:30;21.00;99.90
17795;DHT22;9021;50.882;4.326;2022-07-21T09:17:02;21.00;99.90
17795;DHT22;9021;50.882;4.326;2022-07-21T09:21:58;21.00;99.90
17795;DHT22;9021;50.882;4.326;2022-07-21T09:24:27;21.10;99.90
17795;DHT22;9021;50.882;4.326;2022-07-21T09:27:07;21.00;99.90
17795;DHT22;9021;50.882;4.326;2022-07-21T09:35:04;21.00;99.90
17795;DHT22;9021;50.882;4.326;2022-07-21T09:37:30;20.90;99.90
17795;DHT22;9021;50.882;4.326;2022-07-21T09:39:57;20.90;99.90
17795;DHT22;9021;50.882;4.326;2022-07-21T09:44:58;21.00;99.90
17795;DHT22;9021;50.882;4.326;2022-07-21T09:47:27;21.10;99.90
17795;DHT22;9021;50.882;4.326;2022-07-21T09:49:53;21.10;99.90
17795;DHT22;9021;50.882;4.326;2022-07-21T09:54:48;21.00;99.90
17795;DHT22;9021;50.882;4.326;2022-07-21T09:57:15;20.90;99.90
17795;DHT22;9021;50.882;4.326;2022-07-21T09:59:43;20.90;99.90
17795;DHT22;9021;50.882;4.326;2022-07-21T10:02:21;20.90;99.90
17795;DHT22;9021;50.882;4.326;2022-07-21T10:07:23;20.90;99.90
17795;DHT22;9021;50.882;4.326;2022-07-21T10:09:49;20.90;99.90
17795;DHT22;9021;50.882;4.326;2022-07-21T10:12:16;21.00;99.90
17795;DHT22;9021;50.882;4.326;2022-07-21T10:14:42;21.10;99.90
17795;DHT22;9021;50.882;4.326;2022-07-21T10:17:08;21.20;99.90
17795;DHT22;9021;50.882;4.326;2022-07-21T10:25:01;21.50;99.90
17795;DHT22;9021;50.882;4.326;2022-07-21T10:27:26;21.50;99.90
17795;DHT22;9021;50.882;4.326;2022-07-21T10:30:02;21.50;99.90
17795;DHT22;9021;50.882;4.326;2022-07-21T10:32:37;21.50;99.90
17795;DHT22;9021;50.882;4.326;2022-07-21T10:35:26;21.40;99.90
17795;DHT22;9021;50.882;4.326;2022-07-21T10:37:54;21.30;99.90
17795;DHT22;9021;50.882;4.326;2022-07-21T10:43:10;21.30;99.90
17795;DHT22;9021;50.882;4.326;2022-07-21T10:47:59;21.20;99.90
17795;DHT22;9021;50.882;4.326;2022-07-21T10:50:30;21.10;99.90
17795;DHT22;9021;50.882;4.326;2022-07-21T10:52:58;21.10;99.90
17795;DHT22;9021;50.882;4.326;2022-07-21T10:55:26;21.10;99.90
17795;DHT22;9021;50.882;4.326;2022-07-21T10:58:12;21.30;99.90
17795;DHT22;9021;50.882;4.326;2022-07-21T11:00:43;21.60;99.90
17795;DHT22;9021;50.882;4.326;2022-07-21T11:03:22;21.90;99.90
17795;DHT22;9021;50.882;4.326;2022-07-21T11:11:20;22.40;99.90
17795;DHT22;9021;50.882;4.326;2022-07-21T11:14:09;22.60;99.90
17795;DHT22;9021;50.882;4.326;2022-07-21T11:19:41;22.70;99.90
17795;DHT22;9021;50.882;4.326;2022-07-21T11:24:36;22.40;99.90
17795;DHT22;9021;50.882;4.326;2022-07-21T11:27:07;22.40;99.90
17795;DHT22;9021;50.882;4.326;2022-07-21T11:29:35;22.30;99.90
17795;DHT22;9021;50.882;4.326;2022-07-21T11:32:02;22.00;99.90
17795;DHT22;9021;50.882;4.326;2022-07-21T11:37:06;21.60;99.90
17795;DHT22;9021;50.882;4.326;2022-07-21T11:39:32;21.60;99.90
17795;DHT22;9021;50.882;4.326;2022-07-21T11:42:14;21.70;99.90
17795;DHT22;9021;50.882;4.326;2022-07-21T11:44:41;21.80;99.90
17795;DHT22;9021;50.882;4.326;2022-07-21T11:47:11;21.80;99.90
17795;DHT22;9021;50.882;4.326;2022-07-21T11:49:38;21.80;99.90
17795;DHT22;9021;50.882;4.326;2022-07-21T11:52:06;21.80;99.90
17795;DHT22;9021;50.882;4.326;2022-07-21T11:54:46;21.80;99.90
17795;DHT22;9021;50.882;4.326;2022-07-21T11:57:14;21.70;99.90
17795;DHT22;9021;50.882;4.326;2022-07-21T11:59:40;21.70;99.90
17795;DHT22;9021;50.882;4.326;2022-07-21T12:02:09;21.80;99.90
17795;DHT22;9021;50.882;4.326;2022-07-21T12:04:42;21.80;99.90
17795;DHT22;9021;50.882;4.326;2022-07-21T12:09:43;22.00;99.90
17795;DHT22;9021;50.882;4.326;2022-07-21T12:12:08;22.10;99.90
17795;DHT22;9021;50.882;4.326;2022-07-21T12:14:45;22.20;99.90
17795;DHT22;9021;50.882;4.326;2022-07-21T12:17:13;22.30;99.90
17795;DHT22;9021;50.882;4.326;2022-07-21T12:19:39;22.40;99.90
17795;DHT22;9021;50.882;4.326;2022-07-21T12:22:06;22.40;99.90
17795;DHT22;9021;50.882;4.326;2022-07-21T12:24:52;22.30;99.90
17795;DHT22;9021;50.882;4.326;2022-07-21T12:27:19;22.20;99.90
17795;DHT22;9021;50.882;4.326;2022-07-21T12:29:44;22.00;99.90
17795;DHT22;9021;50.882;4.326;2022-07-21T12:32:11;22.00;99.90
17795;DHT22;9021;50.882;4.326;2022-07-21T12:34:52;22.00;99.90
17795;DHT22;9021;50.882;4.326;2022-07-21T12:37:17;22.00;99.90
17795;DHT22;9021;50.882;4.326;2022-07-21T12:40:00;22.00;99.90
17795;DHT22;9021;50.882;4.326;2022-07-21T12:42:34;22.00;99.90
17795;DHT22;9021;50.882;4.326;2022-07-21T12:45:19;21.90;99.90
17795;DHT22;9021;50.882;4.326;2022-07-21T12:48:08;21.90;99.90
17795;DHT22;9021;50.882;4.326;2022-07-21T12:50:34;21.80;99.90
17795;DHT22;9021;50.882;4.326;2022-07-21T12:52:59;21.80;99.90
17795;DHT22;9021;50.882;4.326;2022-07-21T12:55:25;21.80;99.90
17795;DHT22;9021;50.882;4.326;2022-07-21T12:57:51;21.80;99.90
17795;DHT22;9021;50.882;4.326;2022-07-21T13:00:17;21.70;99.90
17795;DHT22;9021;50.882;4.326;2022-07-21T13:02:51;21.60;99.90
17795;DHT22;9021;50.882;4.326;2022-07-21T13:05:17;21.60;99.90
17795;DHT22;9021;50.882;4.326;2022-07-21T13:07:43;21.60;99.90
17795;DHT22;9021;50.882;4.326;2022-07-21T13:10:08;21.60;99.90
17795;DHT22;9021;50.882;4.326;2022-07-21T13:12:34;21.70;99.90
17795;DHT22;9021;50.882;4.326;2022-07-21T13:15:00;21.70;99.90
17795;DHT22;9021;50.882;4.326;2022-07-21T13:17:25;21.80;99.90
17795;DHT22;9021;50.882;4.326;2022-07-21T13:19:51;21.90;99.90
17795;DHT22;9021;50.882;4.326;2022-07-21T13:22:17;21.80;99.90
17795;DHT22;9021;50.882;4.326;2022-07-21T13:24:42;21.80;99.90
17795;DHT22;9021;50.882;4.326;2022-07-21T13:27:08;21.90;99.90
17795;DHT22;9021;50.882;4.326;2022-07-21T13:29:33;21.90;99.90
17795;DHT22;9021;50.882;4.326;2022-07-21T13:32:01;21.90;99.90
17795;DHT22;9021;50.882;4.326;2022-07-21T13:34:26;21.90;99.90
17795;DHT22;9021;50.882;4.326;2022-07-21T13:36:52;21.90;99.90
17795;DHT22;9021;50.882;4.326;2022-07-21T13:39:17;21.80;99.90
17795;DHT22;9021;50.882;4.326;2022-07-21T13:41:43;21.90;99.90
17795;DHT22;9021;50.882;4.326;2022-07-21T13:44:09;21.80;99.90
17795;DHT22;9021;50.882;4.326;2022-07-21T13:46:34;21.80;99.90
17795;DHT22;9021;50.882;4.326;2022-07-21T13:49:00;21.80;99.90
17795;DHT22;9021;50.882;4.326;2022-07-21T13:51:26;21.80;99.90
17795;DHT22;9021;50.882;4.326;2022-07-21T13:53:52;21.90;99.90
17795;DHT22;9021;50.882;4.326;2022-07-21T13:56:18;21.80;99.90
17795;DHT22;9021;50.882;4.326;2022-07-21T13:58:44;21.80;99.90
17795;DHT22;9021;50.882;4.326;2022-07-21T14:01:11;21.70;99.90
17795;DHT22;9021;50.882;4.326;2022-07-21T14:03:37;21.80;99.90
17795;DHT22;9021;50.882;4.326;2022-07-21T14:06:03;21.80;99.90
17795;DHT22;9021;50.882;4.326;2022-07-21T14:08:29;22.00;99.90
17795;DHT22;9021;50.882;4.326;2022-07-21T14:10:55;22.00;99.90
17795;DHT22;9021;50.882;4.326;2022-07-21T14:13:20;22.10;99.90
17795;DHT22;9021;50.882;4.326;2022-07-21T14:15:46;22.20;99.90
17795;DHT22;9021;50.882;4.326;2022-07-21T14:18:12;22.30;99.90
17795;DHT22;9021;50.882;4.326;2022-07-21T14:20:38;22.30;99.90
17795;DHT22;9021;50.882;4.326;2022-07-21T14:23:04;22.50;99.90
17795;DHT22;9021;50.882;4.326;2022-07-21T14:25:30;22.80;99.90
17795;DHT22;9021;50.882;4.326;2022-07-21T14:27:57;22.70;99.90
17795;DHT22;9021;50.882;4.326;2022-07-21T14:30:25;22.70;99.90
17795;DHT22;9021;50.882;4.326;2022-07-21T14:32:51;22.50;99.90
17795;DHT22;9021;50.882;4.326;2022-07-21T14:35:18;22.50;99.90
17795;DHT22;9021;50.882;4.326;2022-07-21T14:37:46;22.50;99.90
17795;DHT22;9021;50.882;4.326;2022-07-21T14:40:12;22.40;99.90
17795;DHT22;9021;50.882;4.326;2022-07-21T14:42:38;22.30;99.90
17795;DHT22;9021;50.882;4.326;2022-07-21T14:45:06;22.20;99.90
17795;DHT22;9021;50.882;4.326;2022-07-21T14:47:32;22.10;99.90
17795;DHT22;9021;50.882;4.326;2022-07-21T14:49:58;22.10;99.90
17795;DHT22;9021;50.882;4.326;2022-07-21T14:52:24;22.20;99.90
17795;DHT22;9021;50.882;4.326;2022-07-21T14:54:50;22.50;99.90
17795;DHT22;9021;50.882;4.326;2022-07-21T14:57:16;22.80;99.90
17795;DHT22;9021;50.882;4.326;2022-07-21T14:59:42;23.10;99.90
17795;DHT22;9021;50.882;4.326;2022-07-21T15:02:09;23.50;99.90
17795;DHT22;9021;50.882;4.326;2022-07-21T15:04:34;23.60;99.90
17795;DHT22;9021;50.882;4.326;2022-07-21T15:07:00;23.80;99.90
17795;DHT22;9021;50.882;4.326;2022-07-21T15:09:26;23.90;99.90
17795;DHT22;9021;50.882;4.326;2022-07-21T15:11:51;23.90;99.90
17795;DHT22;9021;50.882;4.326;2022-07-21T15:14:17;23.80;99.90
17795;DHT22;9021;50.882;4.326;2022-07-21T15:16:43;23.80;99.90
17795;DHT22;9021;50.882;4.326;2022-07-21T15:19:08;23.70;99.90
17795;DHT22;9021;50.882;4.326;2022-07-21T15:21:35;23.40;99.90
17795;DHT22;9021;50.882;4.326;2022-07-21T15:24:00;23.20;99.90
17795;DHT22;9021;50.882;4.326;2022-07-21T15:26:26;23.10;99.90
17795;DHT22;9021;50.882;4.326;2022-07-21T15:28:52;22.90;99.90
17795;DHT22;9021;50.882;4.326;2022-07-21T15:31:18;22.80;99.90
17795;DHT22;9021;50.882;4.326;2022-07-21T15:33:43;22.80;99.90
17795;DHT22;9021;50.882;4.326;2022-07-21T15:36:09;22.80;99.90
17795;DHT22;9021;50.882;4.326;2022-07-21T15:38:35;23.10;99.90
17795;DHT22;9021;50.882;4.326;2022-07-21T15:41:00;23.30;99.90
17795;DHT22;9021;50.882;4.326;2022-07-21T15:43:28;23.40;99.90
17795;DHT22;9021;50.882;4.326;2022-07-21T15:45:54;23.50;99.90
17795;DHT22;9021;50.882;4.326;2022-07-21T15:48:20;23.40;99.90
17795;DHT22;9021;50.882;4.326;2022-07-21T15:50:45;23.30;99.90
17795;DHT22;9021;50.882;4.326;2022-07-21T15:53:12;23.20;99.90
17795;DHT22;9021;50.882;4.326;2022-07-21T15:55:38;23.00;99.90
17795;DHT22;9021;50.882;4.326;2022-07-21T15:58:04;22.90;99.90
17795;DHT22;9021;50.882;4.326;2022-07-21T16:00:29;22.80;99.90
17795;DHT22;9021;50.882;4.326;2022-07-21T16:02:55;22.80;99.90
17795;DHT22;9021;50.882;4.326;2022-07-21T16:05:22;22.80;99.90
17795;DHT22;9021;50.882;4.326;2022-07-21T16:07:49;22.80;99.90
17795;DHT22;9021;50.882;4.326;2022-07-21T16:10:16;22.80;99.90
17795;DHT22;9021;50.882;4.326;2022-07-21T16:12:43;22.90;99.90
17795;DHT22;9021;50.882;4.326;2022-07-21T16:15:09;22.90;99.90
17795;DHT22;9021;50.882;4.326;2022-07-21T16:17:36;22.90;99.90
17795;DHT22;9021;50.882;4.326;2022-07-21T16:20:03;22.80;99.90
17795;DHT22;9021;50.882;4.326;2022-07-21T16:22:29;22.80;99.90
17795;DHT22;9021;50.882;4.326;2022-07-21T16:24:55;22.90;99.90
17795;DHT22;9021;50.882;4.326;2022-07-21T16:27:20;22.90;99.90
17795;DHT22;9021;50.882;4.326;2022-07-21T16:29:46;22.90;99.90
17795;DHT22;9021;50.882;4.326;2022-07-21T16:32:12;22.90;99.90
17795;DHT22;9021;50.882;4.326;2022-07-21T16:34:38;22.90;99.90